sensor_id;sensor_type;location;lat;lon;timestamp;P1;durP1;ratioP1;P2;durP2;ratioP2
52067;SDS011;60237;52.338;21.228;2022-12-10T00:00:32;164.68;;;66.40;;
52067;SDS011;60237;52.338;21.228;2022-12-10T00:02:59;208.45;;;73.97;;
52067;SDS011;60237;52.338;21.228;2022-12-10T00:05:25;158.20;;;65.88;;
52067;SDS011;60237;52.338;21.228;2022-12-10T00:07:52;180.27;;;68.43;;
52067;SDS011;60237;52.338;21.228;2022-12-10T00:10:18;207.20;;;76.32;;
52067;SDS011;60237;52.338;21.228;2022-12-10T00:12:45;167.52;;;67.93;;
52067;SDS011;60237;52.338;21.228;2022-12-10T00:15:12;210.07;;;73.65;;
52067;SDS011;60237;52.338;21.228;2022-12-10T00:17:39;176.05;;;70.47;;
52067;SDS011;60237;52.338;21.228;2022-12-10T00:20:05;215.95;;;75.93;;
52067;SDS011;60237;52.338;21.228;2022-12-10T00:22:32;168.13;;;63.88;;
52067;SDS011;60237;52.338;21.228;2022-12-10T00:24:59;201.23;;;68.32;;
52067;SDS011;60237;52.338;21.228;2022-12-10T00:27:25;171.88;;;60.80;;
52067;SDS011;60237;52.338;21.228;2022-12-10T00:29:53;189.75;;;68.63;;
52067;SDS011;60237;52.338;21.228;2022-12-10T00:32:20;166.40;;;65.10;;
52067;SDS011;60237;52.338;21.228;2022-12-10T00:34:46;173.35;;;66.03;;
52067;SDS011;60237;52.338;21.228;2022-12-10T00:37:13;171.43;;;68.75;;
52067;SDS011;60237;52.338;21.228;2022-12-10T00:39:40;181.50;;;70.97;;
52067;SDS011;60237;52.338;21.228;2022-12-10T00:42:06;181.85;;;68.82;;
52067;SDS011;60237;52.338;21.228;2022-12-10T00:44:33;165.82;;;64.05;;
52067;SDS011;60237;52.338;21.228;2022-12-10T00:47:00;160.93;;;61.15;;
52067;SDS011;60237;52.338;21.228;2022-12-10T00:49:27;148.48;;;58.85;;
52067;SDS011;60237;52.338;21.228;2022-12-10T00:51:54;172.30;;;63.85;;
52067;SDS011;60237;52.338;21.228;2022-12-10T00:54:20;157.55;;;61.00;;
52067;SDS011;60237;52.338;21.228;2022-12-10T00:56:47;136.93;;;55.95;;
52067;SDS011;60237;52.338;21.228;2022-12-10T00:59:13;160.13;;;59.85;;
52067;SDS011;60237;52.338;21.228;2022-12-10T01:01:41;160.55;;;60.50;;
52067;SDS011;60237;52.338;21.228;2022-12-10T01:04:15;139.52;;;54.67;;
52067;SDS011;60237;52.338;21.228;2022-12-10T01:09:12;148.57;;;56.40;;
52067;SDS011;60237;52.338;21.228;2022-12-10T01:11:40;163.20;;;57.83;;
52067;SDS011;60237;52.338;21.228;2022-12-10T01:14:08;170.88;;;57.63;;
52067;SDS011;60237;52.338;21.228;2022-12-10T01:16:35;137.25;;;52.08;;
52067;SDS011;60237;52.338;21.228;2022-12-10T01:19:02;133.18;;;50.47;;
52067;SDS011;60237;52.338;21.228;2022-12-10T01:21:29;129.00;;;47.67;;
52067;SDS011;60237;52.338;21.228;2022-12-10T01:23:56;145.05;;;53.33;;
52067;SDS011;60237;52.338;21.228;2022-12-10T01:26:25;156.48;;;49.78;;
52067;SDS011;60237;52.338;21.228;2022-12-10T01:28:53;130.93;;;44.42;;
52067;SDS011;60237;52.338;21.228;2022-12-10T01:31:21;138.95;;;44.80;;
52067;SDS011;60237;52.338;21.228;2022-12-10T01:33:48;116.97;;;41.97;;
52067;SDS011;60237;52.338;21.228;2022-12-10T01:36:19;120.18;;;42.40;;
52067;SDS011;60237;52.338;21.228;2022-12-10T01:38:46;101.30;;;39.45;;
52067;SDS011;60237;52.338;21.228;2022-12-10T01:41:14;108.45;;;39.40;;
52067;SDS011;60237;52.338;21.228;2022-12-10T01:43:49;110.80;;;40.03;;
52067;SDS011;60237;52.338;21.228;2022-12-10T01:46:16;115.63;;;38.92;;
52067;SDS011;60237;52.338;21.228;2022-12-10T01:48:42;102.38;;;36.85;;
52067;SDS011;60237;52.338;21.228;2022-12-10T01:51:09;94.75;;;38.22;;
52067;SDS011;60237;52.338;21.228;2022-12-10T01:53:36;102.97;;;38.83;;
52067;SDS011;60237;52.338;21.228;2022-12-10T01:56:03;105.95;;;36.60;;
52067;SDS011;60237;52.338;21.228;2022-12-10T01:58:29;105.20;;;37.42;;
52067;SDS011;60237;52.338;21.228;2022-12-10T02:04:02;91.10;;;35.05;;
52067;SDS011;60237;52.338;21.228;2022-12-10T02:09:04;100.63;;;36.28;;
52067;SDS011;60237;52.338;21.228;2022-12-10T02:11:40;117.68;;;36.58;;
52067;SDS011;60237;52.338;21.228;2022-12-10T02:14:17;117.47;;;36.35;;
52067;SDS011;60237;52.338;21.228;2022-12-10T02:16:52;101.85;;;35.33;;
52067;SDS011;60237;52.338;21.228;2022-12-10T02:19:22;108.45;;;34.95;;
52067;SDS011;60237;52.338;21.228;2022-12-10T02:21:51;109.18;;;39.63;;
52067;SDS011;60237;52.338;21.228;2022-12-10T02:24:21;111.82;;;36.92;;
52067;SDS011;60237;52.338;21.228;2022-12-10T02:29:36;94.68;;;34.67;;
52067;SDS011;60237;52.338;21.228;2022-12-10T02:32:05;112.10;;;38.00;;
52067;SDS011;60237;52.338;21.228;2022-12-10T02:34:35;110.57;;;37.22;;
52067;SDS011;60237;52.338;21.228;2022-12-10T02:37:05;134.43;;;44.95;;
52067;SDS011;60237;52.338;21.228;2022-12-10T02:39:35;105.05;;;38.17;;
52067;SDS011;60237;52.338;21.228;2022-12-10T02:42:04;115.38;;;43.13;;
52067;SDS011;60237;52.338;21.228;2022-12-10T02:44:32;133.30;;;46.65;;
52067;SDS011;60237;52.338;21.228;2022-12-10T02:47:01;124.53;;;43.08;;
52067;SDS011;60237;52.338;21.228;2022-12-10T02:49:34;120.15;;;39.75;;
52067;SDS011;60237;52.338;21.228;2022-12-10T02:52:14;114.72;;;39.17;;
52067;SDS011;60237;52.338;21.228;2022-12-10T02:54:46;121.78;;;42.58;;
52067;SDS011;60237;52.338;21.228;2022-12-10T03:02:39;107.45;;;36.53;;
52067;SDS011;60237;52.338;21.228;2022-12-10T03:08:16;107.53;;;34.63;;
52067;SDS011;60237;52.338;21.228;2022-12-10T03:10:50;90.57;;;33.13;;
52067;SDS011;60237;52.338;21.228;2022-12-10T03:13:20;115.10;;;39.13;;
52067;SDS011;60237;52.338;21.228;2022-12-10T03:15:48;115.22;;;38.75;;
52067;SDS011;60237;52.338;21.228;2022-12-10T03:18:16;116.07;;;39.65;;
52067;SDS011;60237;52.338;21.228;2022-12-10T03:20:44;124.60;;;40.03;;
52067;SDS011;60237;52.338;21.228;2022-12-10T03:23:12;126.35;;;41.25;;
52067;SDS011;60237;52.338;21.228;2022-12-10T03:25:40;140.57;;;41.35;;
52067;SDS011;60237;52.338;21.228;2022-12-10T03:28:06;112.80;;;38.10;;
52067;SDS011;60237;52.338;21.228;2022-12-10T03:30:33;109.97;;;38.13;;
52067;SDS011;60237;52.338;21.228;2022-12-10T03:33:01;128.65;;;42.72;;
52067;SDS011;60237;52.338;21.228;2022-12-10T03:35:28;134.40;;;39.90;;
52067;SDS011;60237;52.338;21.228;2022-12-10T03:37:54;97.00;;;34.30;;
52067;SDS011;60237;52.338;21.228;2022-12-10T03:40:22;109.38;;;38.13;;
52067;SDS011;60237;52.338;21.228;2022-12-10T03:42:49;109.53;;;34.70;;
52067;SDS011;60237;52.338;21.228;2022-12-10T03:45:15;88.82;;;32.80;;
52067;SDS011;60237;52.338;21.228;2022-12-10T03:47:42;116.45;;;36.50;;
52067;SDS011;60237;52.338;21.228;2022-12-10T03:50:08;94.40;;;31.70;;
52067;SDS011;60237;52.338;21.228;2022-12-10T03:52:36;105.05;;;33.08;;
52067;SDS011;60237;52.338;21.228;2022-12-10T03:55:02;132.82;;;37.65;;
52067;SDS011;60237;52.338;21.228;2022-12-10T03:57:29;95.03;;;31.70;;
52067;SDS011;60237;52.338;21.228;2022-12-10T03:59:56;101.47;;;30.98;;
52067;SDS011;60237;52.338;21.228;2022-12-10T04:02:22;106.60;;;31.15;;
52067;SDS011;60237;52.338;21.228;2022-12-10T04:04:49;100.07;;;32.17;;
52067;SDS011;60237;52.338;21.228;2022-12-10T04:07:15;108.30;;;34.13;;
52067;SDS011;60237;52.338;21.228;2022-12-10T04:09:42;86.07;;;29.63;;
52067;SDS011;60237;52.338;21.228;2022-12-10T04:12:08;107.07;;;33.50;;
52067;SDS011;60237;52.338;21.228;2022-12-10T04:14:35;102.68;;;33.47;;
52067;SDS011;60237;52.338;21.228;2022-12-10T04:17:19;107.82;;;33.58;;
52067;SDS011;60237;52.338;21.228;2022-12-10T04:19:46;93.22;;;30.65;;
52067;SDS011;60237;52.338;21.228;2022-12-10T04:22:12;90.90;;;30.35;;
52067;SDS011;60237;52.338;21.228;2022-12-10T04:24:58;110.50;;;33.00;;
52067;SDS011;60237;52.338;21.228;2022-12-10T04:27:43;89.35;;;31.33;;
52067;SDS011;60237;52.338;21.228;2022-12-10T04:30:10;96.25;;;29.20;;
52067;SDS011;60237;52.338;21.228;2022-12-10T04:32:37;105.70;;;30.10;;
52067;SDS011;60237;52.338;21.228;2022-12-10T04:35:04;98.85;;;28.25;;
52067;SDS011;60237;52.338;21.228;2022-12-10T04:37:31;92.97;;;27.80;;
52067;SDS011;60237;52.338;21.228;2022-12-10T04:39:57;80.45;;;27.83;;
52067;SDS011;60237;52.338;21.228;2022-12-10T04:42:24;80.32;;;27.35;;
52067;SDS011;60237;52.338;21.228;2022-12-10T04:44:50;87.43;;;26.98;;
52067;SDS011;60237;52.338;21.228;2022-12-10T04:47:17;100.00;;;29.05;;
52067;SDS011;60237;52.338;21.228;2022-12-10T04:49:43;85.75;;;29.38;;
52067;SDS011;60237;52.338;21.228;2022-12-10T04:52:11;78.93;;;29.20;;
52067;SDS011;60237;52.338;21.228;2022-12-10T04:54:39;90.78;;;29.67;;
52067;SDS011;60237;52.338;21.228;2022-12-10T04:57:06;99.15;;;29.63;;
52067;SDS011;60237;52.338;21.228;2022-12-10T04:59:33;92.03;;;28.95;;
52067;SDS011;60237;52.338;21.228;2022-12-10T05:01:59;80.25;;;26.90;;
52067;SDS011;60237;52.338;21.228;2022-12-10T05:04:26;99.43;;;27.40;;
52067;SDS011;60237;52.338;21.228;2022-12-10T05:06:52;80.70;;;24.50;;
52067;SDS011;60237;52.338;21.228;2022-12-10T05:09:19;78.85;;;25.65;;
52067;SDS011;60237;52.338;21.228;2022-12-10T05:11:45;87.38;;;29.23;;
52067;SDS011;60237;52.338;21.228;2022-12-10T05:14:13;84.13;;;27.50;;
52067;SDS011;60237;52.338;21.228;2022-12-10T05:16:40;80.40;;;27.20;;
52067;SDS011;60237;52.338;21.228;2022-12-10T05:19:06;97.65;;;27.45;;
52067;SDS011;60237;52.338;21.228;2022-12-10T05:21:33;86.70;;;30.05;;
52067;SDS011;60237;52.338;21.228;2022-12-10T05:24:18;100.78;;;34.67;;
52067;SDS011;60237;52.338;21.228;2022-12-10T05:26:44;93.25;;;34.42;;
52067;SDS011;60237;52.338;21.228;2022-12-10T05:29:11;131.05;;;38.33;;
52067;SDS011;60237;52.338;21.228;2022-12-10T05:31:38;122.93;;;39.10;;
52067;SDS011;60237;52.338;21.228;2022-12-10T05:34:04;167.25;;;51.03;;
52067;SDS011;60237;52.338;21.228;2022-12-10T05:36:31;117.30;;;33.67;;
52067;SDS011;60237;52.338;21.228;2022-12-10T05:38:58;117.43;;;39.30;;
52067;SDS011;60237;52.338;21.228;2022-12-10T05:41:28;131.68;;;42.65;;
52067;SDS011;60237;52.338;21.228;2022-12-10T05:43:55;138.35;;;37.55;;
52067;SDS011;60237;52.338;21.228;2022-12-10T05:46:23;81.03;;;24.95;;
52067;SDS011;60237;52.338;21.228;2022-12-10T05:48:51;110.28;;;30.17;;
52067;SDS011;60237;52.338;21.228;2022-12-10T05:51:19;114.75;;;33.95;;
52067;SDS011;60237;52.338;21.228;2022-12-10T05:53:46;102.30;;;30.23;;
52067;SDS011;60237;52.338;21.228;2022-12-10T05:56:14;110.43;;;30.98;;
52067;SDS011;60237;52.338;21.228;2022-12-10T05:58:42;101.47;;;31.58;;
52067;SDS011;60237;52.338;21.228;2022-12-10T06:01:10;93.38;;;29.05;;
52067;SDS011;60237;52.338;21.228;2022-12-10T06:03:37;97.97;;;30.48;;
52067;SDS011;60237;52.338;21.228;2022-12-10T06:06:04;99.78;;;28.23;;
52067;SDS011;60237;52.338;21.228;2022-12-10T06:08:31;99.47;;;30.75;;
52067;SDS011;60237;52.338;21.228;2022-12-10T06:11:02;101.00;;;28.63;;
52067;SDS011;60237;52.338;21.228;2022-12-10T06:13:28;99.68;;;29.67;;
52067;SDS011;60237;52.338;21.228;2022-12-10T06:15:55;100.00;;;28.17;;
52067;SDS011;60237;52.338;21.228;2022-12-10T06:18:21;111.70;;;28.98;;
52067;SDS011;60237;52.338;21.228;2022-12-10T06:20:48;111.65;;;30.83;;
52067;SDS011;60237;52.338;21.228;2022-12-10T06:23:14;108.10;;;30.75;;
52067;SDS011;60237;52.338;21.228;2022-12-10T06:25:41;103.05;;;30.27;;
52067;SDS011;60237;52.338;21.228;2022-12-10T06:28:08;100.47;;;29.13;;
52067;SDS011;60237;52.338;21.228;2022-12-10T06:30:34;102.70;;;29.88;;
52067;SDS011;60237;52.338;21.228;2022-12-10T06:33:01;145.32;;;34.72;;
52067;SDS011;60237;52.338;21.228;2022-12-10T06:35:28;116.32;;;32.38;;
52067;SDS011;60237;52.338;21.228;2022-12-10T06:37:54;98.07;;;30.55;;
52067;SDS011;60237;52.338;21.228;2022-12-10T06:40:20;109.60;;;30.45;;
52067;SDS011;60237;52.338;21.228;2022-12-10T06:42:50;123.43;;;34.30;;
52067;SDS011;60237;52.338;21.228;2022-12-10T06:45:16;115.65;;;31.73;;
52067;SDS011;60237;52.338;21.228;2022-12-10T06:47:43;117.93;;;31.95;;
52067;SDS011;60237;52.338;21.228;2022-12-10T06:50:09;116.05;;;32.38;;
52067;SDS011;60237;52.338;21.228;2022-12-10T06:52:38;130.27;;;34.30;;
52067;SDS011;60237;52.338;21.228;2022-12-10T06:55:04;133.60;;;33.67;;
52067;SDS011;60237;52.338;21.228;2022-12-10T06:57:31;137.38;;;34.45;;
52067;SDS011;60237;52.338;21.228;2022-12-10T06:59:58;120.10;;;30.58;;
52067;SDS011;60237;52.338;21.228;2022-12-10T07:02:24;124.32;;;32.83;;
52067;SDS011;60237;52.338;21.228;2022-12-10T07:04:51;114.32;;;32.33;;
52067;SDS011;60237;52.338;21.228;2022-12-10T07:07:17;108.53;;;29.90;;
52067;SDS011;60237;52.338;21.228;2022-12-10T07:09:43;123.00;;;31.95;;
52067;SDS011;60237;52.338;21.228;2022-12-10T07:12:10;103.90;;;30.85;;
52067;SDS011;60237;52.338;21.228;2022-12-10T07:14:37;112.53;;;32.70;;
52067;SDS011;60237;52.338;21.228;2022-12-10T07:17:03;123.82;;;32.33;;
52067;SDS011;60237;52.338;21.228;2022-12-10T07:19:31;124.43;;;34.42;;
52067;SDS011;60237;52.338;21.228;2022-12-10T07:21:57;109.97;;;32.78;;
52067;SDS011;60237;52.338;21.228;2022-12-10T07:24:24;115.75;;;34.10;;
52067;SDS011;60237;52.338;21.228;2022-12-10T07:26:51;132.95;;;33.53;;
52067;SDS011;60237;52.338;21.228;2022-12-10T07:29:19;149.13;;;39.88;;
52067;SDS011;60237;52.338;21.228;2022-12-10T07:31:46;118.90;;;36.60;;
52067;SDS011;60237;52.338;21.228;2022-12-10T07:34:14;119.20;;;35.47;;
52067;SDS011;60237;52.338;21.228;2022-12-10T07:36:41;133.38;;;37.83;;
52067;SDS011;60237;52.338;21.228;2022-12-10T07:39:09;157.00;;;42.38;;
52067;SDS011;60237;52.338;21.228;2022-12-10T07:41:35;142.32;;;38.28;;
52067;SDS011;60237;52.338;21.228;2022-12-10T07:44:05;131.30;;;38.13;;
52067;SDS011;60237;52.338;21.228;2022-12-10T07:46:33;119.25;;;34.53;;
52067;SDS011;60237;52.338;21.228;2022-12-10T07:49:00;121.95;;;31.98;;
52067;SDS011;60237;52.338;21.228;2022-12-10T07:51:27;131.40;;;33.75;;
52067;SDS011;60237;52.338;21.228;2022-12-10T07:53:53;117.90;;;33.15;;
52067;SDS011;60237;52.338;21.228;2022-12-10T07:56:20;131.05;;;36.65;;
52067;SDS011;60237;52.338;21.228;2022-12-10T07:58:48;117.68;;;33.95;;
52067;SDS011;60237;52.338;21.228;2022-12-10T08:01:16;138.73;;;38.33;;
52067;SDS011;60237;52.338;21.228;2022-12-10T08:03:43;156.65;;;41.17;;
52067;SDS011;60237;52.338;21.228;2022-12-10T08:06:11;124.22;;;36.25;;
52067;SDS011;60237;52.338;21.228;2022-12-10T08:08:38;143.85;;;38.85;;
52067;SDS011;60237;52.338;21.228;2022-12-10T08:11:05;128.43;;;32.55;;
52067;SDS011;60237;52.338;21.228;2022-12-10T08:13:32;134.40;;;36.47;;
52067;SDS011;60237;52.338;21.228;2022-12-10T08:16:06;114.50;;;33.58;;
52067;SDS011;60237;52.338;21.228;2022-12-10T08:18:33;115.20;;;33.78;;
52067;SDS011;60237;52.338;21.228;2022-12-10T08:21:16;115.88;;;31.88;;
52067;SDS011;60237;52.338;21.228;2022-12-10T08:23:44;122.75;;;33.95;;
52067;SDS011;60237;52.338;21.228;2022-12-10T08:26:12;124.53;;;32.35;;
52067;SDS011;60237;52.338;21.228;2022-12-10T08:28:39;105.63;;;30.80;;
52067;SDS011;60237;52.338;21.228;2022-12-10T08:31:11;117.78;;;31.52;;
52067;SDS011;60237;52.338;21.228;2022-12-10T08:33:38;110.57;;;29.13;;
52067;SDS011;60237;52.338;21.228;2022-12-10T08:36:06;110.22;;;31.33;;
52067;SDS011;60237;52.338;21.228;2022-12-10T08:38:33;152.48;;;35.35;;
52067;SDS011;60237;52.338;21.228;2022-12-10T08:41:04;97.65;;;29.33;;
52067;SDS011;60237;52.338;21.228;2022-12-10T08:43:31;122.47;;;31.85;;
52067;SDS011;60237;52.338;21.228;2022-12-10T08:45:58;111.20;;;30.90;;
52067;SDS011;60237;52.338;21.228;2022-12-10T08:48:24;109.97;;;30.92;;
52067;SDS011;60237;52.338;21.228;2022-12-10T08:50:52;96.35;;;30.80;;
52067;SDS011;60237;52.338;21.228;2022-12-10T08:53:18;121.32;;;30.70;;
52067;SDS011;60237;52.338;21.228;2022-12-10T08:55:44;99.63;;;29.23;;
52067;SDS011;60237;52.338;21.228;2022-12-10T08:58:14;112.00;;;30.08;;
52067;SDS011;60237;52.338;21.228;2022-12-10T09:00:41;117.88;;;31.02;;
52067;SDS011;60237;52.338;21.228;2022-12-10T09:03:08;96.60;;;29.10;;
52067;SDS011;60237;52.338;21.228;2022-12-10T09:05:34;109.90;;;30.42;;
52067;SDS011;60237;52.338;21.228;2022-12-10T09:08:01;103.13;;;31.30;;
52067;SDS011;60237;52.338;21.228;2022-12-10T09:10:27;96.40;;;29.60;;
52067;SDS011;60237;52.338;21.228;2022-12-10T09:12:54;104.70;;;30.00;;
52067;SDS011;60237;52.338;21.228;2022-12-10T09:15:28;91.97;;;28.23;;
52067;SDS011;60237;52.338;21.228;2022-12-10T09:17:54;85.68;;;25.45;;
52067;SDS011;60237;52.338;21.228;2022-12-10T09:20:21;102.28;;;28.75;;
52067;SDS011;60237;52.338;21.228;2022-12-10T09:22:48;92.53;;;26.38;;
52067;SDS011;60237;52.338;21.228;2022-12-10T09:25:14;85.07;;;26.98;;
52067;SDS011;60237;52.338;21.228;2022-12-10T09:27:43;84.90;;;27.35;;
52067;SDS011;60237;52.338;21.228;2022-12-10T09:30:10;78.05;;;24.42;;
52067;SDS011;60237;52.338;21.228;2022-12-10T09:32:37;86.82;;;27.02;;
52067;SDS011;60237;52.338;21.228;2022-12-10T09:35:04;96.28;;;26.80;;
52067;SDS011;60237;52.338;21.228;2022-12-10T09:37:30;90.18;;;27.33;;
52067;SDS011;60237;52.338;21.228;2022-12-10T09:39:57;96.88;;;28.83;;
52067;SDS011;60237;52.338;21.228;2022-12-10T09:45:24;84.75;;;26.65;;
52067;SDS011;60237;52.338;21.228;2022-12-10T09:47:55;100.60;;;28.45;;
52067;SDS011;60237;52.338;21.228;2022-12-10T09:50:36;109.65;;;33.25;;
52067;SDS011;60237;52.338;21.228;2022-12-10T09:53:07;102.15;;;30.00;;
52067;SDS011;60237;52.338;21.228;2022-12-10T09:55:36;133.27;;;42.38;;
52067;SDS011;60237;52.338;21.228;2022-12-10T09:58:04;92.32;;;30.60;;
52067;SDS011;60237;52.338;21.228;2022-12-10T10:00:34;111.57;;;40.28;;
52067;SDS011;60237;52.338;21.228;2022-12-10T10:03:01;100.20;;;30.58;;
52067;SDS011;60237;52.338;21.228;2022-12-10T10:05:29;128.93;;;40.72;;
52067;SDS011;60237;52.338;21.228;2022-12-10T10:07:57;119.65;;;41.30;;
52067;SDS011;60237;52.338;21.228;2022-12-10T10:10:35;132.10;;;44.22;;
52067;SDS011;60237;52.338;21.228;2022-12-10T10:15:36;79.47;;;26.48;;
52067;SDS011;60237;52.338;21.228;2022-12-10T10:18:04;69.68;;;23.70;;
52067;SDS011;60237;52.338;21.228;2022-12-10T10:20:35;95.55;;;27.77;;
52067;SDS011;60237;52.338;21.228;2022-12-10T10:23:02;84.45;;;25.15;;
52067;SDS011;60237;52.338;21.228;2022-12-10T10:25:28;71.63;;;24.50;;
52067;SDS011;60237;52.338;21.228;2022-12-10T10:27:55;86.28;;;27.33;;
52067;SDS011;60237;52.338;21.228;2022-12-10T10:30:22;77.72;;;27.30;;
52067;SDS011;60237;52.338;21.228;2022-12-10T10:32:53;81.75;;;26.77;;
52067;SDS011;60237;52.338;21.228;2022-12-10T10:37:49;78.85;;;25.17;;
52067;SDS011;60237;52.338;21.228;2022-12-10T10:40:23;88.10;;;28.95;;
52067;SDS011;60237;52.338;21.228;2022-12-10T10:42:52;109.80;;;33.55;;
52067;SDS011;60237;52.338;21.228;2022-12-10T10:45:36;75.45;;;26.60;;
52067;SDS011;60237;52.338;21.228;2022-12-10T10:50:32;94.05;;;29.48;;
52067;SDS011;60237;52.338;21.228;2022-12-10T10:53:18;90.38;;;26.92;;
52067;SDS011;60237;52.338;21.228;2022-12-10T10:55:46;88.20;;;27.98;;
52067;SDS011;60237;52.338;21.228;2022-12-10T10:58:21;93.50;;;30.27;;
52067;SDS011;60237;52.338;21.228;2022-12-10T11:01:02;77.38;;;25.75;;
52067;SDS011;60237;52.338;21.228;2022-12-10T11:03:29;102.78;;;31.08;;
52067;SDS011;60237;52.338;21.228;2022-12-10T11:05:57;79.38;;;25.50;;
52067;SDS011;60237;52.338;21.228;2022-12-10T11:08:25;103.70;;;27.52;;
52067;SDS011;60237;52.338;21.228;2022-12-10T11:11:04;97.28;;;29.00;;
52067;SDS011;60237;52.338;21.228;2022-12-10T11:13:32;97.75;;;28.48;;
52067;SDS011;60237;52.338;21.228;2022-12-10T11:16:10;96.97;;;30.77;;
52067;SDS011;60237;52.338;21.228;2022-12-10T11:18:39;94.47;;;30.25;;
52067;SDS011;60237;52.338;21.228;2022-12-10T11:21:08;95.07;;;26.85;;
52067;SDS011;60237;52.338;21.228;2022-12-10T11:23:43;107.75;;;27.88;;
52067;SDS011;60237;52.338;21.228;2022-12-10T11:29:30;99.65;;;31.58;;
52067;SDS011;60237;52.338;21.228;2022-12-10T11:42:20;97.15;;;30.27;;
52067;SDS011;60237;52.338;21.228;2022-12-10T11:44:45;121.22;;;34.20;;
52067;SDS011;60237;52.338;21.228;2022-12-10T11:54:51;98.32;;;30.63;;
52067;SDS011;60237;52.338;21.228;2022-12-10T11:57:39;102.95;;;31.67;;
52067;SDS011;60237;52.338;21.228;2022-12-10T12:00:15;98.75;;;32.70;;
52067;SDS011;60237;52.338;21.228;2022-12-10T12:05:55;118.90;;;36.95;;
52067;SDS011;60237;52.338;21.228;2022-12-10T12:10:52;115.72;;;37.80;;
52067;SDS011;60237;52.338;21.228;2022-12-10T12:13:28;103.00;;;34.33;;
52067;SDS011;60237;52.338;21.228;2022-12-10T12:18:53;109.07;;;34.72;;
52067;SDS011;60237;52.338;21.228;2022-12-10T12:21:22;104.10;;;28.15;;
52067;SDS011;60237;52.338;21.228;2022-12-10T12:23:50;90.30;;;28.77;;
52067;SDS011;60237;52.338;21.228;2022-12-10T12:26:37;102.97;;;32.65;;
52067;SDS011;60237;52.338;21.228;2022-12-10T12:31:54;87.80;;;27.52;;
52067;SDS011;60237;52.338;21.228;2022-12-10T12:34:43;81.65;;;27.50;;
52067;SDS011;60237;52.338;21.228;2022-12-10T12:37:12;116.03;;;38.90;;
52067;SDS011;60237;52.338;21.228;2022-12-10T12:39:43;90.15;;;30.25;;
52067;SDS011;60237;52.338;21.228;2022-12-10T12:44:49;116.22;;;39.47;;
52067;SDS011;60237;52.338;21.228;2022-12-10T12:47:22;101.07;;;31.38;;
52067;SDS011;60237;52.338;21.228;2022-12-10T12:49:52;85.57;;;27.33;;
52067;SDS011;60237;52.338;21.228;2022-12-10T12:52:40;97.20;;;31.02;;
52067;SDS011;60237;52.338;21.228;2022-12-10T12:55:14;94.97;;;27.10;;
52067;SDS011;60237;52.338;21.228;2022-12-10T12:57:46;73.65;;;26.73;;
52067;SDS011;60237;52.338;21.228;2022-12-10T13:00:17;87.07;;;26.58;;
52067;SDS011;60237;52.338;21.228;2022-12-10T13:02:51;135.35;;;43.97;;
52067;SDS011;60237;52.338;21.228;2022-12-10T13:05:24;124.47;;;41.20;;
52067;SDS011;60237;52.338;21.228;2022-12-10T13:13:31;98.65;;;34.85;;
52067;SDS011;60237;52.338;21.228;2022-12-10T13:18:43;82.25;;;29.02;;
52067;SDS011;60237;52.338;21.228;2022-12-10T13:21:26;88.35;;;28.00;;
52067;SDS011;60237;52.338;21.228;2022-12-10T13:26:23;81.25;;;27.30;;
52067;SDS011;60237;52.338;21.228;2022-12-10T13:28:52;84.47;;;27.95;;
52067;SDS011;60237;52.338;21.228;2022-12-10T13:36:25;84.32;;;28.67;;
52067;SDS011;60237;52.338;21.228;2022-12-10T13:39:10;90.28;;;28.65;;
52067;SDS011;60237;52.338;21.228;2022-12-10T13:41:39;90.13;;;30.17;;
52067;SDS011;60237;52.338;21.228;2022-12-10T13:44:34;115.53;;;37.72;;
52067;SDS011;60237;52.338;21.228;2022-12-10T13:47:04;108.57;;;39.22;;
52067;SDS011;60237;52.338;21.228;2022-12-10T13:49:34;105.85;;;39.58;;
52067;SDS011;60237;52.338;21.228;2022-12-10T13:52:12;99.03;;;39.13;;
52067;SDS011;60237;52.338;21.228;2022-12-10T13:54:44;83.90;;;34.25;;
52067;SDS011;60237;52.338;21.228;2022-12-10T14:00:29;89.60;;;35.20;;
52067;SDS011;60237;52.338;21.228;2022-12-10T14:07:52;67.28;;;27.23;;
52067;SDS011;60237;52.338;21.228;2022-12-10T14:10:20;75.47;;;28.83;;
52067;SDS011;60237;52.338;21.228;2022-12-10T14:12:49;83.55;;;29.83;;
52067;SDS011;60237;52.338;21.228;2022-12-10T14:15:17;69.50;;;25.33;;
52067;SDS011;60237;52.338;21.228;2022-12-10T14:17:44;80.82;;;28.58;;
52067;SDS011;60237;52.338;21.228;2022-12-10T14:20:15;81.25;;;29.70;;
52067;SDS011;60237;52.338;21.228;2022-12-10T14:22:44;70.80;;;26.88;;
52067;SDS011;60237;52.338;21.228;2022-12-10T14:25:12;116.50;;;42.05;;
52067;SDS011;60237;52.338;21.228;2022-12-10T14:27:39;93.68;;;35.03;;
52067;SDS011;60237;52.338;21.228;2022-12-10T14:30:15;247.27;;;88.45;;
52067;SDS011;60237;52.338;21.228;2022-12-10T14:32:42;96.50;;;35.97;;
52067;SDS011;60237;52.338;21.228;2022-12-10T14:35:13;71.40;;;29.77;;
52067;SDS011;60237;52.338;21.228;2022-12-10T14:37:47;74.00;;;29.45;;
52067;SDS011;60237;52.338;21.228;2022-12-10T14:40:21;76.47;;;30.35;;
52067;SDS011;60237;52.338;21.228;2022-12-10T14:42:49;86.35;;;33.58;;
52067;SDS011;60237;52.338;21.228;2022-12-10T14:45:16;83.57;;;32.95;;
52067;SDS011;60237;52.338;21.228;2022-12-10T14:47:43;104.63;;;37.28;;
52067;SDS011;60237;52.338;21.228;2022-12-10T14:50:14;82.43;;;33.10;;
52067;SDS011;60237;52.338;21.228;2022-12-10T14:52:42;87.85;;;33.38;;
52067;SDS011;60237;52.338;21.228;2022-12-10T14:55:13;109.55;;;36.10;;
52067;SDS011;60237;52.338;21.228;2022-12-10T14:57:42;102.53;;;37.88;;
52067;SDS011;60237;52.338;21.228;2022-12-10T15:00:12;90.47;;;33.17;;
52067;SDS011;60237;52.338;21.228;2022-12-10T15:02:41;83.45;;;32.45;;
52067;SDS011;60237;52.338;21.228;2022-12-10T15:05:21;71.82;;;27.83;;
52067;SDS011;60237;52.338;21.228;2022-12-10T15:07:52;79.57;;;31.27;;
52067;SDS011;60237;52.338;21.228;2022-12-10T15:10:21;88.18;;;31.70;;
52067;SDS011;60237;52.338;21.228;2022-12-10T15:12:49;86.13;;;29.17;;
52067;SDS011;60237;52.338;21.228;2022-12-10T15:15:18;61.85;;;26.52;;
52067;SDS011;60237;52.338;21.228;2022-12-10T15:17:52;68.75;;;26.98;;
52067;SDS011;60237;52.338;21.228;2022-12-10T15:20:24;72.40;;;27.90;;
52067;SDS011;60237;52.338;21.228;2022-12-10T15:22:51;88.10;;;33.00;;
52067;SDS011;60237;52.338;21.228;2022-12-10T15:27:57;78.22;;;32.65;;
52067;SDS011;60237;52.338;21.228;2022-12-10T15:30:32;75.15;;;30.33;;
52067;SDS011;60237;52.338;21.228;2022-12-10T15:32:59;83.20;;;30.45;;
52067;SDS011;60237;52.338;21.228;2022-12-10T15:35:25;96.18;;;32.03;;
52067;SDS011;60237;52.338;21.228;2022-12-10T15:37:52;76.80;;;31.10;;
52067;SDS011;60237;52.338;21.228;2022-12-10T15:40:25;77.30;;;30.38;;
52067;SDS011;60237;52.338;21.228;2022-12-10T15:42:55;82.72;;;30.88;;